| time (UTC) | temp C | wind direction | speed KPH | gust KPH | rain 1hr cm | rain 24hr cm | rain mn cm | humidity % | barometer mb |
| 20260503013042 | 19 | 140 | 0.0 | 0.0 | 0.00 | 0.00 | 0.00 | 38 | 1011.8 |
| 20260503011542 | 19 | 211 | 0.0 | 0.0 | 0.00 | 0.00 | 0.00 | 34 | 1011.9 |
| 20260503010141 | 18 | 211 | 0.0 | 0.0 | 0.00 | 0.00 | 0.00 | 35 | 1012.0 |
| 20260503004542 | 18 | 211 | 0.0 | 4.8 | 0.00 | 0.00 | 0.00 | 37 | 1012.2 |
| 20260503003037 | 18 | 211 | 0.0 | 0.0 | 0.00 | 0.00 | 0.00 | 35 | 1012.4 |
| 20260503001536 | 19 | 214 | 0.0 | 0.0 | 0.00 | 0.00 | 0.00 | 33 | 1012.5 |
| 20260503000135 | 18 | 214 | 0.0 | 0.0 | 0.00 | 0.00 | 0.00 | 34 | 1012.6 |
| 20260502234549 | 18 | 212 | 0.0 | 9.7 | 0.00 | 0.00 | 0.00 | 37 | 1012.8 |
| 20260502233038 | 19 | 231 | 0.0 | 20.9 | 0.00 | 0.00 | 0.00 | 32 | 1012.8 |
| 20260502231535 | 20 | 132 | 0.0 | 8.0 | 0.00 | 0.00 | 0.00 | 32 | 1013.0 |
| 20260502230133 | 19 | 240 | 1.6 | 12.9 | 0.00 | 0.00 | 0.00 | 33 | 1013.3 |
| 20260502224553 | 18 | 242 | 8.0 | 24.1 | 0.00 | 0.00 | 0.00 | 35 | 1013.6 |
| 20260502223052 | 19 | 265 | 14.5 | 27.4 | 0.00 | 0.00 | 0.00 | 34 | 1013.6 |
| 20260502221549 | 18 | 230 | 12.9 | 25.7 | 0.00 | 0.00 | 0.00 | 32 | 1013.9 |
| 20260502220146 | 18 | 169 | 0.0 | 12.9 | 0.00 | 0.00 | 0.00 | 35 | 1014.0 |
| 20260502214552 | 18 | 234 | 8.0 | 22.5 | 0.00 | 0.00 | 0.00 | 34 | 1014.4 |
| 20260502213053 | 18 | 275 | 0.0 | 4.8 | 0.00 | 0.00 | 0.00 | 34 | 1014.5 |
| 20260502211546 | 17 | 289 | 0.0 | 6.4 | 0.00 | 0.00 | 0.00 | 34 | 1014.8 |
| 20260502210143 | 17 | 288 | 9.7 | 20.9 | 0.00 | 0.00 | 0.00 | 34 | 1015.0 |
| 20260502204538 | 17 | 277 | 0.0 | 11.3 | 0.00 | 0.00 | 0.00 | 35 | 1015.0 |
| 20260502203037 | 17 | 267 | 1.6 | 19.3 | 0.00 | 0.00 | 0.00 | 36 | 1015.3 |
| 20260502201543 | 17 | 278 | 0.0 | 12.9 | 0.00 | 0.00 | 0.00 | 35 | 1015.3 |
| 20260502200136 | 17 | 306 | 0.0 | 11.3 | 0.00 | 0.00 | 0.00 | 34 | 1015.6 |
| 20260502194534 | 17 | 346 | 4.8 | 17.7 | 0.00 | 0.00 | 0.00 | 35 | 1015.9 |
| 20260502193032 | 17 | 309 | 3.2 | 17.7 | 0.00 | 0.00 | 0.00 | 35 | 1016.2 |
| 20260502191531 | 16 | 268 | 0.0 | 16.1 | 0.00 | 0.00 | 0.00 | 35 | 1016.3 |
| 20260502190130 | 16 | 298 | 0.0 | 17.7 | 0.00 | 0.00 | 0.00 | 36 | 1016.4 |
| 20260502184558 | 16 | 286 | 12.9 | 17.7 | 0.00 | 0.00 | 0.00 | 36 | 1016.7 |
| 20260502183051 | 16 | 355 | 0.0 | 16.1 | 0.00 | 0.00 | 0.00 | 36 | 1016.7 |
| 20260502181549 | 16 | 325 | 3.2 | 14.5 | 0.00 | 0.00 | 0.00 | 38 | 1016.9 |
| 20260502180146 | 16 | 259 | 0.0 | 14.5 | 0.00 | 0.00 | 0.00 | 39 | 1017.0 |
| 20260502170140 | 14 | 290 | 3.2 | 11.3 | 0.00 | 0.00 | 0.00 | 45 | 1017.5 |
| 20260502163043 | 13 | 325 | 1.6 | 14.5 | 0.00 | 0.00 | 0.00 | 48 | 1017.6 |
| 20260502161541 | 13 | 302 | 9.7 | 16.1 | 0.00 | 0.00 | 0.00 | 51 | 1017.6 |
| 20260502160139 | 12 | 289 | 9.7 | 16.1 | 0.00 | 0.00 | 0.00 | 56 | 1017.8 |
| 20260502151533 | 10 | 289 | 11.3 | 17.7 | 0.00 | 0.00 | 0.00 | 63 | 1017.8 |
| 20260502150133 | 10 | 273 | 11.3 | 16.1 | 0.00 | 0.00 | 0.00 | 64 | 1017.9 |
| 20260502130144 | 9 | 329 | 0.0 | 4.8 | 0.00 | 0.00 | 0.00 | 68 | 1017.0 |
| 20260502123046 | 9 | 311 | 4.8 | 12.9 | 0.00 | 0.00 | 0.00 | 68 | 1016.9 |
| 20260502121544 | 8 | 305 | 0.0 | 12.9 | 0.00 | 0.00 | 0.00 | 71 | 1016.9 |
| 20260502120138 | 8 | 284 | 4.8 | 8.0 | 0.00 | 0.00 | 0.00 | 73 | 1016.9 |
| 20260502114542 | 8 | 284 | 3.2 | 8.0 | 0.00 | 0.00 | 0.00 | 74 | 1016.9 |
| 20260502113038 | 8 | 284 | 4.8 | 6.4 | 0.00 | 0.00 | 0.00 | 72 | 1016.8 |
| 20260502111540 | 8 | 284 | 3.2 | 12.9 | 0.00 | 0.00 | 0.00 | 72 | 1017.0 |
| 20260502110134 | 8 | 280 | 6.4 | 14.5 | 0.00 | 0.00 | 0.00 | 71 | 1016.8 |
| 20260502104556 | 9 | 273 | 8.0 | 16.1 | 0.00 | 0.00 | 0.00 | 71 | 1016.9 |
| 20260502103107 | 9 | 273 | 11.3 | 16.1 | 0.00 | 0.00 | 0.00 | 70 | 1016.8 |
| 20260502101604 | 9 | 275 | 9.7 | 14.5 | 0.00 | 0.00 | 0.00 | 70 | 1016.7 |
| 20260502100149 | 9 | 289 | 9.7 | 14.5 | 0.00 | 0.00 | 0.00 | 68 | 1016.7 |
| 20260502090143 | 11 | 302 | 6.4 | 16.1 | 0.00 | 0.00 | 0.00 | 62 | 1016.3 |
| 20260502071534 | 11 | 360 | 0.0 | 8.0 | 0.00 | 0.00 | 0.00 | 62 | 1015.6 |
| 20260502070132 | 12 | 310 | 6.4 | 9.7 | 0.00 | 0.00 | 0.00 | 61 | 1015.8 |
| 20260502064602 | 12 | 335 | 6.4 | 14.5 | 0.00 | 0.00 | 0.00 | 61 | 1015.6 |
| 20260502063058 | 12 | 333 | 6.4 | 14.5 | 0.00 | 0.00 | 0.00 | 60 | 1015.3 |
| 20260502061554 | 12 | 338 | 4.8 | 16.1 | 0.00 | 0.00 | 0.00 | 59 | 1015.1 |
| 20260502060150 | 12 | 265 | 11.3 | 20.9 | 0.00 | 0.00 | 0.00 | 59 | 1015.0 |
| 20260502054545 | 13 | 336 | 11.3 | 20.9 | 0.00 | 0.00 | 0.00 | 57 | 1014.8 |
| 20260502053043 | 13 | 338 | 12.9 | 20.9 | 0.00 | 0.00 | 0.00 | 56 | 1014.9 |
| 20260502051542 | 13 | 312 | 12.9 | 17.7 | 0.00 | 0.00 | 0.00 | 54 | 1014.8 |
| 20260502050142 | 14 | 360 | 14.5 | 22.5 | 0.00 | 0.00 | 0.00 | 51 | 1014.5 |
| 20260502044536 | 14 | 360 | 9.7 | 22.5 | 0.00 | 0.00 | 0.00 | 50 | 1014.4 |
| 20260502043037 | 15 | 5 | 11.3 | 22.5 | 0.00 | 0.00 | 0.00 | 49 | 1014.2 |
| 20260502041535 | 15 | 44 | 8.0 | 25.7 | 0.00 | 0.00 | 0.00 | 46 | 1014.1 |
| 20260502040134 | 15 | 23 | 8.0 | 29.0 | 0.00 | 0.00 | 0.00 | 45 | 1013.8 |
| 20260502034535 | 15 | 34 | 19.3 | 29.0 | 0.00 | 0.00 | 0.00 | 45 | 1013.4 |
| 20260502033042 | 16 | 27 | 16.1 | 25.7 | 0.00 | 0.00 | 0.00 | 45 | 1013.2 |
| 20260502031532 | 16 | 32 | 17.7 | 27.4 | 0.00 | 0.00 | 0.00 | 44 | 1012.8 |
| 20260502024540 | 17 | 44 | 14.5 | 20.9 | 0.00 | 0.00 | 0.00 | 39 | 1012.2 |
| 20260502023042 | 18 | 56 | 11.3 | 24.1 | 0.00 | 0.00 | 0.00 | 33 | 1012.0 |
| 20260502021538 | 19 | 43 | 19.3 | 30.6 | 0.00 | 0.00 | 0.00 | 32 | 1011.6 |
| 20260502020139 | 20 | 125 | 0.0 | 25.7 | 0.00 | 0.00 | 0.00 | 25 | 1010.9 |
| 20260502014536 | 20 | 103 | 11.3 | 19.3 | 0.00 | 0.00 | 0.00 | 25 | 1011.0 |